Wetterdaten: Woche 14.12.15 - 20.12.15 (KW51)
Datum Zeit Temp. A. Feuchte A. Luftdruck Regen Wind Richtung Taupunkt Windchill Windben
14.12.2015 00:00 5,7 C 81 % 1024,9 hPa 0,0 l/m 1,5 km/h N 2,7 C 5,7 C 7,6 km/h
14.12.2015 01:00 5,4 C 75 % 1024,9 hPa 0,0 l/m 1,4 km/h N 1,3 C 5,4 C 7,2 km/h
14.12.2015 02:00 4,9 C 73 % 1025,3 hPa 0,0 l/m 1,3 km/h N 0,5 C 4,9 C 6,8 km/h
14.12.2015 03:00 4,7 C 75 % 1025,4 hPa 0,0 l/m 0,3 km/h N 0,7 C 4,7 C 2,8 km/h
14.12.2015 04:00 4,4 C 78 % 1025,5 hPa 0,3 l/m 0,0 km/h N 0,9 C 4,4 C 0,0 km/h
14.12.2015 05:00 4,2 C 79 % 1025,7 hPa 0,0 l/m 0,2 km/h N 0,9 C 4,2 C 2,4 km/h
14.12.2015 06:00 4,1 C 79 % 1025,7 hPa 0,0 l/m 0,0 km/h N 0,8 C 4,1 C 0,0 km/h
14.12.2015 07:00 3,9 C 79 % 1026,1 hPa 0,0 l/m 0,0 km/h N 0,6 C 3,9 C 0,0 km/h
14.12.2015 08:00 3,8 C 79 % 1026,3 hPa 0,0 l/m 0,0 km/h N 0,5 C 3,8 C 0,4 km/h
14.12.2015 09:00 4,3 C 79 % 1026,4 hPa 0,0 l/m 0,1 km/h N 0,9 C 4,3 C 0,8 km/h
14.12.2015 10:00 5,2 C 77 % 1026,5 hPa 0,0 l/m 0,1 km/h N 1,4 C 5,2 C 2,8 km/h
14.12.2015 11:00 5,5 C 76 % 1026,1 hPa 0,0 l/m 0,2 km/h N 1,5 C 5,5 C 4,0 km/h
14.12.2015 12:00 5,8 C 76 % 1025,6 hPa 0,0 l/m 0,1 km/h N 1,8 C 5,8 C 2,8 km/h
14.12.2015 13:00 6,3 C 75 % 1025,1 hPa 0,0 l/m 0,2 km/h N 2,2 C 6,3 C 5,2 km/h
14.12.2015 14:00 7,0 C 71 % 1024,9 hPa 0,0 l/m 0,4 km/h N 2,0 C 7,0 C 6,0 km/h
14.12.2015 15:00 6,1 C 74 % 1025,1 hPa 0,0 l/m 0,1 km/h N 1,8 C 6,1 C 2,0 km/h
14.12.2015 16:00 5,2 C 78 % 1025,3 hPa 0,0 l/m 0,3 km/h N 1,7 C 5,2 C 4,4 km/h
14.12.2015 17:00 4,4 C 80 % 1025,7 hPa 0,0 l/m 0,1 km/h N 1,3 C 4,4 C 2,8 km/h
14.12.2015 18:00 3,9 C 80 % 1026,0 hPa 0,0 l/m 0,1 km/h N 0,7 C 3,9 C 2,8 km/h
14.12.2015 19:00 3,7 C 81 % 1026,4 hPa 0,0 l/m 0,0 km/h N 0,7 C 3,7 C 0,4 km/h
14.12.2015 20:00 3,5 C 82 % 1026,5 hPa 0,0 l/m 0,0 km/h N 0,7 C 3,5 C 1,6 km/h
14.12.2015 21:00 3,4 C 82 % 1026,7 hPa 0,0 l/m 0,0 km/h N 0,6 C 3,4 C 0,0 km/h
14.12.2015 22:00 3,3 C 83 % 1026,6 hPa 0,0 l/m 0,0 km/h N 0,7 C 3,3 C 0,0 km/h
14.12.2015 23:00 3,3 C 83 % 1026,6 hPa 0,0 l/m 0,0 km/h N 0,7 C 3,3 C 0,0 km/h
15.12.2015 00:00 3,3 C 83 % 1026,6 hPa 0,0 l/m 0,0 km/h N 0,7 C 3,3 C 0,4 km/h
15.12.2015 01:00 3,3 C 83 % 1026,6 hPa 0,0 l/m 0,0 km/h N 0,7 C 3,3 C 0,0 km/h
15.12.2015 02:00 3,4 C 83 % 1026,8 hPa 0,0 l/m 0,0 km/h N 0,8 C 3,4 C 0,0 km/h
15.12.2015 03:00 3,4 C 83 % 1027,0 hPa 0,0 l/m 0,0 km/h N 0,8 C 3,4 C 0,0 km/h
15.12.2015 04:00 3,4 C 83 % 1026,8 hPa 0,0 l/m 0,0 km/h N 0,8 C 3,4 C 0,8 km/h
15.12.2015 05:00 3,3 C 83 % 1026,9 hPa 0,0 l/m 0,0 km/h N 0,7 C 3,3 C 0,4 km/h
15.12.2015 06:00 3,2 C 84 % 1027,2 hPa 0,0 l/m 0,0 km/h N 0,7 C 3,2 C 0,4 km/h
15.12.2015 07:00 2,9 C 83 % 1027,4 hPa 0,0 l/m 0,0 km/h N 0,3 C 2,9 C 1,2 km/h
15.12.2015 08:00 2,8 C 83 % 1027,6 hPa 0,0 l/m 0,2 km/h N 0,3 C 2,8 C 2,8 km/h
15.12.2015 09:00 3,3 C 83 % 1027,7 hPa 0,0 l/m 0,9 km/h N 0,7 C 3,3 C 6,4 km/h
15.12.2015 10:00 3,7 C 83 % 1027,7 hPa 0,0 l/m 1,8 km/h N 1,1 C 3,7 C 6,8 km/h
15.12.2015 11:00 4,1 C 84 % 1027,4 hPa 0,0 l/m 0,9 km/h N 1,6 C 4,1 C 6,0 km/h
15.12.2015 12:00 4,9 C 84 % 1027,0 hPa 0,0 l/m 1,2 km/h N 2,3 C 4,9 C 8,9 km/h
15.12.2015 13:00 5,1 C 82 % 1026,6 hPa 0,0 l/m 0,9 km/h N 2,3 C 5,1 C 6,8 km/h
15.12.2015 14:00 4,9 C 82 % 1026,4 hPa 0,0 l/m 0,4 km/h N 2,1 C 4,9 C 5,2 km/h
15.12.2015 15:00 4,7 C 82 % 1026,5 hPa 0,0 l/m 0,1 km/h N 1,9 C 4,7 C 3,6 km/h
15.12.2015 16:00 4,0 C 83 % 1026,8 hPa 0,0 l/m 0,1 km/h N 1,4 C 4,0 C 3,2 km/h
15.12.2015 17:00 3,8 C 83 % 1027,1 hPa 0,0 l/m 0,0 km/h N 1,2 C 3,8 C 0,8 km/h
15.12.2015 18:00 3,5 C 84 % 1027,6 hPa 0,0 l/m 0,0 km/h N 1,1 C 3,5 C 0,8 km/h
15.12.2015 19:00 3,3 C 84 % 1027,8 hPa 0,0 l/m 0,0 km/h N 0,8 C 3,3 C 0,8 km/h
15.12.2015 20:00 2,4 C 85 % 1028,3 hPa 0,0 l/m 0,2 km/h N 0,2 C 2,4 C 1,6 km/h
15.12.2015 21:00 2,3 C 83 % 1028,6 hPa 0,0 l/m 0,0 km/h N -0,2 C 2,3 C 0,0 km/h
15.12.2015 22:00 2,6 C 83 % 1028,7 hPa 0,0 l/m 0,0 km/h N 0,0 C 2,6 C 0,0 km/h
15.12.2015 23:00 2,6 C 83 % 1029,1 hPa 0,0 l/m 0,0 km/h N 0,1 C 2,6 C 0,4 km/h
16.12.2015 00:00 2,7 C 83 % 1029,3 hPa 0,0 l/m 0,0 km/h N 0,1 C 2,7 C 0,0 km/h
16.12.2015 01:00 2,7 C 83 % 1029,5 hPa 0,0 l/m 0,0 km/h N 0,1 C 2,7 C 0,0 km/h
16.12.2015 02:00 2,6 C 83 % 1029,6 hPa 0,0 l/m 0,0 km/h N 0,1 C 2,6 C 0,0 km/h
16.12.2015 03:00 2,6 C 83 % 1029,9 hPa 0,0 l/m 0,4 km/h N 0,0 C 2,6 C 2,4 km/h
16.12.2015 04:00 2,5 C 83 % 1030,2 hPa 0,0 l/m 0,3 km/h N -0,1 C 2,5 C 1,2 km/h
16.12.2015 05:00 2,7 C 82 % 1030,4 hPa 0,0 l/m 0,0 km/h N -0,0 C 2,7 C 0,0 km/h
16.12.2015 06:00 2,8 C 82 % 1030,5 hPa 0,0 l/m 0,2 km/h N 0,1 C 2,8 C 2,0 km/h
16.12.2015 07:00 2,7 C 82 % 1030,9 hPa 0,0 l/m 0,0 km/h N -0,0 C 2,7 C 0,0 km/h
16.12.2015 08:00 2,4 C 82 % 1031,4 hPa 0,0 l/m 0,0 km/h N -0,4 C 2,4 C 0,0 km/h
16.12.2015 09:00 3,0 C 82 % 1031,8 hPa 0,0 l/m 0,0 km/h N 0,2 C 3,0 C 0,0 km/h
16.12.2015 10:00 3,7 C 82 % 1032,0 hPa 0,0 l/m 0,1 km/h N 0,9 C 3,7 C 1,6 km/h
16.12.2015 11:00 4,2 C 82 % 1031,9 hPa 0,0 l/m 0,1 km/h N 1,4 C 4,2 C 2,8 km/h
16.12.2015 12:00 4,6 C 82 % 1031,9 hPa 0,0 l/m 0,1 km/h N 1,8 C 4,6 C 2,0 km/h
16.12.2015 13:00 4,8 C 82 % 1031,6 hPa 0,0 l/m 0,2 km/h N 2,0 C 4,8 C 2,4 km/h
16.12.2015 14:00 4,7 C 83 % 1031,6 hPa 0,0 l/m 0,1 km/h N 2,1 C 4,7 C 2,0 km/h
16.12.2015 15:00 4,8 C 83 % 1031,7 hPa 0,0 l/m 0,2 km/h N 2,1 C 4,8 C 3,2 km/h
16.12.2015 16:00 4,6 C 83 % 1031,9 hPa 0,0 l/m 0,1 km/h N 2,0 C 4,6 C 2,4 km/h
16.12.2015 17:00 4,3 C 83 % 1032,1 hPa 0,0 l/m 0,4 km/h N 1,6 C 4,3 C 5,2 km/h
16.12.2015 18:00 3,7 C 83 % 1032,4 hPa 0,0 l/m 1,6 km/h N 1,1 C 3,7 C 7,2 km/h
16.12.2015 19:00 3,6 C 83 % 1032,4 hPa 0,0 l/m 0,8 km/h N 1,0 C 3,6 C 6,4 km/h
16.12.2015 20:00 3,4 C 83 % 1032,3 hPa 0,0 l/m 0,6 km/h N 0,8 C 3,4 C 5,6 km/h
16.12.2015 21:00 3,6 C 82 % 1032,3 hPa 0,0 l/m 0,7 km/h N 0,8 C 3,6 C 6,0 km/h
16.12.2015 22:00 3,5 C 82 % 1032,3 hPa 0,0 l/m 1,6 km/h N 0,8 C 3,5 C 8,0 km/h
16.12.2015 23:00 3,6 C 82 % 1031,9 hPa 0,0 l/m 0,6 km/h N 0,8 C 3,6 C 6,4 km/h
17.12.2015 00:00 3,6 C 82 % 1031,4 hPa 0,0 l/m 1,0 km/h N 0,8 C 3,6 C 6,8 km/h
17.12.2015 01:00 3,6 C 81 % 1031,2 hPa 0,0 l/m 0,5 km/h N 0,7 C 3,6 C 5,6 km/h
17.12.2015 02:00 3,6 C 82 % 1031,2 hPa 0,0 l/m 0,1 km/h N 0,8 C 3,6 C 3,2 km/h
17.12.2015 03:00 3,4 C 81 % 1030,9 hPa 0,0 l/m 0,1 km/h N 0,5 C 3,4 C 2,8 km/h
17.12.2015 04:00 3,4 C 81 % 1030,8 hPa 0,0 l/m 0,2 km/h N 0,5 C 3,4 C 3,2 km/h
17.12.2015 05:00 3,5 C 81 % 1030,6 hPa 0,0 l/m 0,0 km/h N 0,6 C 3,5 C 2,0 km/h
17.12.2015 06:00 3,6 C 81 % 1030,6 hPa 0,0 l/m 0,3 km/h N 0,6 C 3,6 C 4,4 km/h
17.12.2015 07:00 3,3 C 81 % 1030,6 hPa 0,0 l/m 0,5 km/h N 0,4 C 3,3 C 5,6 km/h
17.12.2015 08:00 3,3 C 81 % 1030,7 hPa 0,3 l/m 0,3 km/h N 0,3 C 3,3 C 4,0 km/h
17.12.2015 09:00 3,4 C 81 % 1030,8 hPa 0,0 l/m 0,4 km/h N 0,4 C 3,4 C 5,2 km/h
17.12.2015 10:00 3,7 C 81 % 1030,6 hPa 0,0 l/m 0,3 km/h N 0,7 C 3,7 C 4,4 km/h
17.12.2015 11:00 4,0 C 81 % 1029,9 hPa 0,3 l/m 0,3 km/h N 1,0 C 4,0 C 4,0 km/h
17.12.2015 12:00 4,1 C 81 % 1029,5 hPa 0,8 l/m 0,1 km/h N 1,2 C 4,1 C 2,0 km/h
17.12.2015 13:00 4,2 C 81 % 1029,0 hPa 0,8 l/m 0,1 km/h N 1,3 C 4,2 C 3,2 km/h
17.12.2015 14:00 4,3 C 81 % 1028,8 hPa 1,0 l/m 0,1 km/h N 1,3 C 4,3 C 2,4 km/h
17.12.2015 15:00 4,3 C 81 % 1028,8 hPa 1,0 l/m 0,1 km/h N 1,3 C 4,3 C 2,8 km/h
17.12.2015 16:00 4,0 C 81 % 1028,7 hPa 0,0 l/m 0,1 km/h N 1,0 C 4,0 C 3,6 km/h
17.12.2015 17:00 3,9 C 81 % 1028,6 hPa 0,0 l/m 0,1 km/h N 1,0 C 3,9 C 2,8 km/h
17.12.2015 18:00 3,9 C 81 % 1028,4 hPa 0,0 l/m 0,3 km/h N 0,9 C 3,9 C 4,0 km/h
17.12.2015 19:00 3,8 C 81 % 1028,3 hPa 0,0 l/m 0,1 km/h N 0,8 C 3,8 C 2,4 km/h
17.12.2015 20:00 3,6 C 81 % 1028,1 hPa 0,0 l/m 0,0 km/h N 0,7 C 3,6 C 1,6 km/h
17.12.2015 21:00 3,6 C 81 % 1028,0 hPa 0,0 l/m 0,2 km/h N 0,7 C 3,6 C 2,8 km/h
17.12.2015 22:00 3,8 C 81 % 1027,9 hPa 0,0 l/m 0,1 km/h N 0,8 C 3,8 C 2,4 km/h
17.12.2015 23:00 3,9 C 81 % 1027,5 hPa 0,0 l/m 0,4 km/h N 0,9 C 3,9 C 4,4 km/h
18.12.2015 00:00 3,8 C 81 % 1027,2 hPa 0,0 l/m 0,2 km/h N 0,8 C 3,8 C 3,2 km/h
18.12.2015 01:00 3,4 C 81 % 1026,9 hPa 0,0 l/m 0,1 km/h N 0,5 C 3,4 C 2,0 km/h
18.12.2015 02:00 3,2 C 81 % 1026,7 hPa 0,0 l/m 0,0 km/h N 0,3 C 3,2 C 0,8 km/h
18.12.2015 03:00 3,1 C 81 % 1026,4 hPa 0,0 l/m 0,0 km/h N 0,2 C 3,1 C 1,6 km/h
18.12.2015 04:00 3,1 C 81 % 1026,3 hPa 0,0 l/m 0,0 km/h N 0,2 C 3,1 C 0,4 km/h
18.12.2015 05:00 3,0 C 81 % 1026,3 hPa 0,0 l/m 0,0 km/h N 0,0 C 3,0 C 0,4 km/h
18.12.2015 06:00 3,1 C 81 % 1026,3 hPa 0,0 l/m 0,1 km/h N 0,2 C 3,1 C 2,8 km/h
18.12.2015 07:00 3,1 C 81 % 1026,2 hPa 0,0 l/m 0,1 km/h N 0,2 C 3,1 C 1,6 km/h
18.12.2015 08:00 3,3 C 80 % 1026,4 hPa 0,0 l/m 0,3 km/h N 0,2 C 3,3 C 3,2 km/h
18.12.2015 09:00 3,6 C 80 % 1026,4 hPa 0,0 l/m 0,3 km/h N 0,5 C 3,6 C 4,8 km/h
18.12.2015 10:00 3,6 C 80 % 1026,6 hPa 0,0 l/m 0,3 km/h N 0,5 C 3,6 C 3,2 km/h
18.12.2015 11:00 3,7 C 80 % 1026,3 hPa 0,0 l/m 0,5 km/h N 0,6 C 3,7 C 4,4 km/h
18.12.2015 12:00 3,9 C 80 % 1026,1 hPa 0,0 l/m 0,1 km/h N 0,7 C 3,9 C 2,0 km/h
18.12.2015 13:00 3,9 C 80 % 1026,1 hPa 0,0 l/m 0,1 km/h N 0,7 C 3,9 C 1,2 km/h
18.12.2015 14:00 3,9 C 80 % 1025,9 hPa 0,0 l/m 0,0 km/h N 0,7 C 3,9 C 2,0 km/h
18.12.2015 15:00 3,8 C 80 % 1026,1 hPa 0,0 l/m 0,2 km/h N 0,7 C 3,8 C 2,8 km/h
18.12.2015 16:00 3,5 C 80 % 1026,6 hPa 0,0 l/m 0,2 km/h N 0,4 C 3,5 C 4,4 km/h
18.12.2015 17:00 3,4 C 80 % 1026,7 hPa 0,0 l/m 0,6 km/h N 0,3 C 3,4 C 4,8 km/h
18.12.2015 18:00 3,3 C 80 % 1026,6 hPa 0,0 l/m 0,3 km/h N 0,2 C 3,3 C 4,4 km/h
18.12.2015 19:00 3,2 C 81 % 1026,5 hPa 0,0 l/m 0,2 km/h N 0,2 C 3,2 C 3,6 km/h
18.12.2015 20:00 3,1 C 81 % 1026,8 hPa 0,0 l/m 0,0 km/h N 0,1 C 3,1 C 1,2 km/h
18.12.2015 21:00 3,2 C 80 % 1026,9 hPa 0,5 l/m 0,0 km/h N 0,1 C 3,2 C 0,4 km/h
18.12.2015 22:00 3,1 C 81 % 1027,2 hPa 0,0 l/m 0,0 km/h N 0,1 C 3,1 C 0,0 km/h
18.12.2015 23:00 3,1 C 81 % 1027,2 hPa 0,0 l/m 0,1 km/h N 0,1 C 3,1 C 0,8 km/h
19.12.2015 00:00 3,0 C 80 % 1027,2 hPa 0,0 l/m 0,0 km/h N -0,0 C 3,0 C 0,0 km/h
19.12.2015 01:00 2,1 C 81 % 1027,1 hPa 0,0 l/m 0,0 km/h N -0,8 C 2,1 C 0,0 km/h
19.12.2015 02:00 1,1 C 81 % 1027,3 hPa 0,0 l/m 0,0 km/h N -1,7 C 1,1 C 0,0 km/h
19.12.2015 03:00 1,1 C 81 % 1027,3 hPa 0,0 l/m 0,0 km/h N -1,7 C 1,1 C 0,0 km/h
19.12.2015 04:00 1,6 C 81 % 1027,3 hPa 0,0 l/m 0,0 km/h N -1,3 C 1,6 C 0,0 km/h
19.12.2015 05:00 2,1 C 80 % 1027,6 hPa 0,0 l/m 0,0 km/h N -1,0 C 2,1 C 0,0 km/h
19.12.2015 06:00 2,2 C 81 % 1027,8 hPa 0,0 l/m 0,0 km/h N -0,8 C 2,2 C 0,0 km/h
19.12.2015 07:00 2,0 C 81 % 1028,0 hPa 0,0 l/m 0,1 km/h N -1,0 C 2,0 C 0,8 km/h
19.12.2015 08:00 1,6 C 81 % 1028,6 hPa 0,3 l/m 0,0 km/h N -1,3 C 1,6 C 0,0 km/h
19.12.2015 09:00 2,6 C 80 % 1028,9 hPa 0,0 l/m 0,0 km/h N -0,5 C 2,6 C 0,0 km/h
19.12.2015 10:00 3,6 C 80 % 1029,0 hPa 0,0 l/m 0,0 km/h N 0,5 C 3,6 C 0,0 km/h
19.12.2015 11:00 4,5 C 80 % 1028,7 hPa 0,0 l/m 0,1 km/h N 1,4 C 4,5 C 2,4 km/h
19.12.2015 12:00 4,8 C 80 % 1028,2 hPa 0,0 l/m 0,1 km/h N 1,6 C 4,8 C 2,4 km/h
19.12.2015 13:00 4,7 C 80 % 1027,9 hPa 0,0 l/m 0,1 km/h N 1,5 C 4,7 C 2,0 km/h
19.12.2015 14:00 4,6 C 80 % 1027,6 hPa 0,0 l/m 0,2 km/h N 1,4 C 4,6 C 2,4 km/h
19.12.2015 15:00 4,5 C 80 % 1027,6 hPa 0,0 l/m 0,2 km/h N 1,3 C 4,5 C 4,8 km/h
19.12.2015 16:00 4,4 C 80 % 1027,9 hPa 0,0 l/m 0,4 km/h N 1,3 C 4,4 C 4,4 km/h
19.12.2015 17:00 3,9 C 80 % 1028,5 hPa 0,0 l/m 0,3 km/h N 0,8 C 3,9 C 4,0 km/h
19.12.2015 18:00 3,8 C 80 % 1028,8 hPa 0,0 l/m 0,3 km/h N 0,7 C 3,8 C 5,6 km/h
19.12.2015 19:00 4,2 C 80 % 1028,8 hPa 0,0 l/m 0,3 km/h N 1,0 C 4,2 C 5,6 km/h
19.12.2015 20:00 4,4 C 80 % 1029,0 hPa 0,0 l/m 0,4 km/h N 1,3 C 4,4 C 5,2 km/h
19.12.2015 21:00 4,5 C 80 % 1029,0 hPa 0,0 l/m 0,2 km/h N 1,4 C 4,5 C 4,4 km/h
19.12.2015 22:00 4,5 C 80 % 1028,8 hPa 0,0 l/m 0,1 km/h N 1,4 C 4,5 C 3,2 km/h
19.12.2015 23:00 4,6 C 80 % 1028,4 hPa 0,3 l/m 0,2 km/h N 1,4 C 4,6 C 2,0 km/h
20.12.2015 00:00 4,5 C 80 % 1028,4 hPa 0,0 l/m 0,3 km/h N 1,4 C 4,5 C 4,4 km/h
20.12.2015 01:00 4,0 C 80 % 1028,3 hPa 0,0 l/m 0,5 km/h N 0,9 C 4,0 C 5,2 km/h
20.12.2015 02:00 3,9 C 80 % 1028,3 hPa 0,0 l/m 0,1 km/h N 0,8 C 3,9 C 2,8 km/h
20.12.2015 03:00 4,1 C 80 % 1027,8 hPa 0,0 l/m 0,1 km/h N 0,9 C 4,1 C 2,4 km/h
20.12.2015 04:00 4,2 C 80 % 1027,7 hPa 0,0 l/m 0,3 km/h N 1,0 C 4,2 C 4,0 km/h
20.12.2015 05:00 4,0 C 80 % 1027,6 hPa 0,0 l/m 0,6 km/h N 0,9 C 4,0 C 6,0 km/h
20.12.2015 06:00 3,8 C 80 % 1027,9 hPa 0,0 l/m 0,5 km/h N 0,7 C 3,8 C 4,8 km/h
20.12.2015 07:00 3,4 C 80 % 1028,2 hPa 0,0 l/m 1,8 km/h N 0,3 C 3,4 C 7,6 km/h
20.12.2015 08:00 3,5 C 80 % 1028,2 hPa 0,3 l/m 0,9 km/h N 0,4 C 3,5 C 7,2 km/h
20.12.2015 09:00 3,6 C 80 % 1028,4 hPa 0,0 l/m 0,2 km/h N 0,5 C 3,6 C 4,4 km/h
20.12.2015 10:00 3,9 C 80 % 1028,3 hPa 0,0 l/m 0,6 km/h N 0,7 C 3,9 C 6,4 km/h
20.12.2015 11:00 3,7 C 80 % 1028,2 hPa 0,0 l/m 1,0 km/h N 0,6 C 3,7 C 7,6 km/h
20.12.2015 12:00 3,6 C 80 % 1027,9 hPa 0,0 l/m 1,0 km/h N 0,4 C 3,6 C 6,8 km/h
20.12.2015 13:00 3,6 C 80 % 1027,7 hPa 0,0 l/m 1,0 km/h N 0,5 C 3,6 C 9,7 km/h
20.12.2015 14:00 3,7 C 80 % 1027,6 hPa 0,0 l/m 1,4 km/h N 0,6 C 3,7 C 8,0 km/h
20.12.2015 15:00 3,7 C 80 % 1027,8 hPa 0,0 l/m 1,2 km/h N 0,6 C 3,7 C 9,3 km/h
20.12.2015 16:00 3,8 C 80 % 1027,8 hPa 0,0 l/m 0,3 km/h N 0,7 C 3,8 C 5,2 km/h
20.12.2015 17:00 3,7 C 80 % 1027,9 hPa 0,0 l/m 0,3 km/h N 0,6 C 3,7 C 4,8 km/h
20.12.2015 18:00 3,4 C 80 % 1028,2 hPa 0,0 l/m 0,3 km/h N 0,3 C 3,4 C 4,4 km/h
20.12.2015 19:00 3,1 C 80 % 1028,4 hPa 0,0 l/m 0,4 km/h N -0,0 C 3,1 C 4,8 km/h
20.12.2015 20:00 3,0 C 80 % 1028,5 hPa 0,0 l/m 0,5 km/h N -0,1 C 3,0 C 4,0 km/h
20.12.2015 21:00 2,9 C 80 % 1028,7 hPa 0,0 l/m 0,2 km/h N -0,2 C 2,9 C 3,2 km/h
20.12.2015 22:00 2,8 C 80 % 1028,8 hPa 0,0 l/m 0,2 km/h N -0,3 C 2,8 C 4,0 km/h
20.12.2015 23:00 2,7 C 80 % 1028,7 hPa 0,0 l/m 0,3 km/h N -0,4 C 2,7 C 4,8 km/h
Min-Datum _ 19.12.15 14.12.15 14.12.15 - 14.12.15 - 19.12.15 19.12.15 14.12.15
_ Min-Zeit 02:45 14:15 00:00 - 03:15 - 02:45 02:45 03:15
Minimum _ 1,0 C 70 % 1024,8 hPa - 0,0 km/h - -1,9 C 1,0 C 0,0 km/h
Max-Datum _ 14.12.15 15.12.15 16.12.15 17.12.15 14.12.15 - 14.12.15 14.12.15 20.12.15
_ Max-Zeit 14:15 20:15 18:45 14:30 00:45 - 00:00 14:15 15:15
Maximum _ 7,2 C 89 % 1032,5 hPa 1,0 l/m 2,9 km/h
N
- 3,6 C 7,2 C 14,5 km/h
N
Durchschnitt _ 3,7 C 81 % 1028,1 hPa #5,7 l/m 0,3 km/h N 0,7 C 3,7 C 3,0 km/h